createdAt,value
2019-05-29T00:02:26.349Z,11.70
2019-05-29T00:04:57.732Z,11.52
2019-05-29T00:07:29.210Z,11.51
2019-05-29T00:10:01.180Z,11.57
2019-05-29T00:12:32.916Z,11.46
2019-05-29T00:15:04.114Z,11.40
2019-05-29T00:17:36.271Z,11.40
2019-05-29T00:20:08.302Z,11.38
2019-05-29T00:22:39.319Z,11.44
2019-05-29T00:25:11.148Z,11.24
2019-05-29T00:27:42.354Z,11.15
2019-05-29T00:30:14.896Z,11.11
2019-05-29T00:32:46.433Z,11.11
2019-05-29T00:35:17.916Z,11.18
2019-05-29T00:37:49.184Z,11.41
2019-05-29T00:40:20.689Z,11.04
2019-05-29T00:42:51.640Z,11.13
2019-05-29T00:45:22.935Z,11.07
2019-05-29T00:47:53.901Z,11.14
2019-05-29T00:53:14.296Z,11.11
2019-05-29T00:55:45.206Z,11.00
2019-05-29T00:58:17.196Z,11.11
2019-05-29T01:00:48.531Z,11.00
2019-05-29T01:03:19.765Z,11.14
2019-05-29T01:05:51.347Z,11.13
2019-05-29T01:08:22.311Z,11.12
2019-05-29T01:10:53.615Z,11.18
2019-05-29T01:13:25.083Z,11.16
2019-05-29T01:15:56.433Z,11.00
2019-05-29T01:18:27.756Z,10.71
2019-05-29T01:20:58.748Z,10.83
2019-05-29T01:23:29.748Z,10.87
2019-05-29T01:26:00.867Z,10.75
2019-05-29T01:28:31.778Z,10.86
2019-05-29T01:31:03.534Z,11.10
2019-05-29T01:33:34.598Z,10.76
2019-05-29T01:36:05.599Z,10.76
2019-05-29T01:38:36.825Z,10.80
2019-05-29T01:41:08.540Z,10.69
2019-05-29T01:43:39.523Z,10.75
2019-05-29T01:46:10.213Z,10.64
2019-05-29T01:48:40.272Z,10.62
2019-05-29T01:51:10.854Z,10.64
2019-05-29T01:53:41.557Z,10.79
2019-05-29T01:56:11.973Z,10.60
2019-05-29T01:58:42.409Z,10.60
2019-05-29T02:01:12.802Z,10.45
2019-05-29T02:03:43.138Z,10.63
2019-05-29T02:06:13.525Z,10.33
2019-05-29T02:08:43.933Z,10.30
2019-05-29T02:11:14.974Z,10.31
2019-05-29T02:13:45.897Z,10.39
2019-05-29T02:16:16.541Z,10.29
2019-05-29T02:18:47.189Z,10.27
2019-05-29T02:21:18.084Z,10.21
2019-05-29T02:23:49.470Z,10.37
2019-05-29T02:26:20.412Z,10.40
2019-05-29T02:28:50.842Z,10.15
2019-05-29T02:31:22.424Z,10.17
2019-05-29T02:33:53.295Z,10.63
2019-05-29T02:36:24.541Z,10.29
2019-05-29T02:38:55.561Z,10.42
2019-05-29T02:41:28.447Z,10.21
2019-05-29T02:43:58.543Z,10.35
2019-05-29T02:46:30.199Z,10.33
2019-05-29T02:49:00.829Z,10.08
2019-05-29T02:51:31.263Z,10.08
2019-05-29T02:54:01.698Z,10.03
2019-05-29T02:56:32.045Z,10.07
2019-05-29T02:59:02.371Z,10.11
2019-05-29T03:01:32.688Z,9.82
2019-05-29T03:04:02.619Z,9.91
2019-05-29T03:06:33.091Z,10.08
2019-05-29T03:09:05.604Z,10.06
2019-05-29T03:11:36.261Z,10.05
2019-05-29T03:14:06.585Z,9.87
2019-05-29T03:16:36.939Z,9.85
2019-05-29T03:19:06.755Z,9.75
2019-05-29T03:21:37.039Z,9.93
2019-05-29T03:24:08.597Z,9.93
2019-05-29T03:26:47.153Z,9.77
2019-05-29T03:29:18.583Z,10.02
2019-05-29T03:31:49.570Z,10.01
2019-05-29T03:34:20.882Z,10.02
2019-05-29T03:36:51.877Z,10.04
2019-05-29T03:39:26.206Z,10.14
2019-05-29T03:41:57.084Z,10.15
2019-05-29T03:44:28.804Z,10.17
2019-05-29T03:47:00.252Z,10.21
2019-05-29T03:49:32.728Z,10.05
2019-05-29T03:52:04.480Z,9.89
2019-05-29T03:54:36.567Z,9.88
2019-05-29T03:57:07.561Z,9.47
2019-05-29T03:59:38.933Z,9.57
2019-05-29T04:02:09.879Z,9.47
2019-05-29T04:04:41.477Z,9.65
2019-05-29T04:07:13.446Z,9.69
2019-05-29T04:09:44.483Z,9.79
2019-05-29T04:12:19.029Z,9.63
2019-05-29T04:14:53.660Z,9.74
2019-05-29T04:17:26.916Z,9.75
2019-05-29T04:19:58.528Z,9.80
2019-05-29T04:22:36.934Z,9.64
2019-05-29T04:25:09.141Z,9.52
2019-05-29T04:27:42.455Z,9.83
2019-05-29T04:30:13.740Z,9.99
2019-05-29T04:32:47.130Z,9.91
2019-05-29T04:35:18.273Z,9.99
2019-05-29T04:37:49.488Z,9.75
2019-05-29T04:40:20.472Z,9.65
2019-05-29T04:42:52.328Z,9.62
2019-05-29T04:45:24.330Z,9.72
2019-05-29T04:47:56.000Z,9.66
2019-05-29T04:50:29.098Z,9.66
2019-05-29T04:53:00.232Z,9.76
2019-05-29T04:55:31.234Z,9.88
2019-05-29T04:58:02.905Z,9.83
2019-05-29T05:00:35.205Z,9.89
2019-05-29T05:03:06.502Z,9.84
2019-05-29T05:05:37.622Z,9.94
2019-05-29T05:08:08.689Z,10.00
2019-05-29T05:10:42.419Z,10.09
2019-05-29T05:13:13.425Z,10.00
2019-05-29T05:15:45.867Z,10.22
2019-05-29T05:18:17.233Z,10.18
2019-05-29T05:20:48.741Z,10.31
2019-05-29T05:23:19.702Z,10.26
2019-05-29T05:25:51.070Z,10.81
2019-05-29T05:28:22.216Z,10.78
2019-05-29T05:30:53.230Z,10.81
2019-05-29T05:33:25.089Z,10.87
2019-05-29T05:35:56.395Z,11.38
2019-05-29T05:38:27.440Z,12.01
2019-05-29T05:40:59.080Z,11.80
2019-05-29T05:43:30.684Z,11.59
2019-05-29T05:46:01.943Z,12.25
2019-05-29T05:48:33.264Z,12.16
2019-05-29T05:51:04.696Z,11.82
2019-05-29T05:53:35.936Z,11.92
2019-05-29T05:56:07.945Z,11.98
2019-05-29T05:58:39.923Z,11.98
2019-05-29T06:01:11.509Z,12.33
2019-05-29T06:03:44.361Z,12.47
2019-05-29T06:06:15.298Z,12.58
2019-05-29T06:08:46.371Z,12.70
2019-05-29T06:11:17.658Z,12.85
2019-05-29T06:13:51.964Z,12.70
2019-05-29T06:16:23.316Z,12.31
2019-05-29T06:18:54.521Z,12.73
2019-05-29T06:21:25.791Z,12.84
2019-05-29T06:23:57.185Z,12.59
2019-05-29T06:26:28.382Z,12.48
2019-05-29T06:28:59.361Z,12.49
2019-05-29T06:31:30.341Z,12.54
2019-05-29T06:34:01.284Z,12.38
2019-05-29T06:36:33.446Z,12.59
2019-05-29T06:39:07.053Z,12.55
2019-05-29T06:41:38.384Z,12.12
2019-05-29T06:44:09.332Z,12.40
2019-05-29T06:46:40.650Z,12.46
2019-05-29T06:49:11.553Z,12.85
2019-05-29T06:51:43.459Z,12.73
2019-05-29T06:54:14.998Z,12.71
2019-05-29T06:56:46.200Z,13.06
2019-05-29T06:59:17.241Z,12.98
2019-05-29T07:01:48.365Z,12.86
2019-05-29T07:04:19.308Z,12.55
2019-05-29T07:06:50.767Z,13.06
2019-05-29T07:09:21.737Z,12.73
2019-05-29T07:11:53.322Z,13.28
2019-05-29T07:14:24.540Z,13.81
2019-05-29T07:16:56.573Z,13.81
2019-05-29T07:19:47.145Z,13.66
2019-05-29T07:22:00.625Z,13.57
2019-05-29T07:24:31.620Z,14.05
2019-05-29T07:27:03.150Z,14.16
2019-05-29T07:29:34.588Z,13.68
2019-05-29T07:32:05.704Z,13.92
2019-05-29T07:34:55.263Z,13.11
2019-05-29T07:37:09.613Z,13.19
2019-05-29T07:39:41.640Z,13.61
2019-05-29T07:42:12.714Z,13.69
2019-05-29T07:44:44.085Z,13.46
2019-05-29T07:47:15.261Z,12.99
2019-05-29T07:49:48.129Z,13.46
2019-05-29T07:52:19.179Z,12.99
2019-05-29T07:54:50.438Z,13.21
2019-05-29T07:57:21.669Z,13.29
2019-05-29T07:59:53.054Z,13.73
2019-05-29T08:02:24.134Z,13.62
2019-05-29T08:04:55.175Z,13.91
2019-05-29T08:07:26.665Z,13.94
2019-05-29T08:09:57.720Z,14.44
2019-05-29T08:12:28.670Z,14.77
2019-05-29T08:14:59.638Z,14.77
2019-05-29T08:17:31.856Z,14.66
2019-05-29T08:20:07.447Z,14.71
2019-05-29T08:22:35.559Z,14.52
2019-05-29T08:25:06.817Z,14.90
2019-05-29T08:27:40.458Z,14.60
2019-05-29T08:30:13.432Z,14.86
2019-05-29T08:32:45.414Z,14.14
2019-05-29T08:35:16.520Z,14.67
2019-05-29T08:37:47.505Z,15.22
2019-05-29T08:40:18.849Z,14.51
2019-05-29T08:42:49.886Z,14.88
2019-05-29T08:45:21.073Z,14.61
2019-05-29T08:47:52.048Z,14.41
2019-05-29T08:50:23.088Z,14.35
2019-05-29T08:52:54.043Z,14.12
2019-05-29T08:55:25.028Z,15.07
2019-05-29T08:57:56.003Z,15.86
2019-05-29T09:00:27.169Z,15.70
2019-05-29T09:02:58.119Z,16.02
2019-05-29T09:05:29.364Z,16.20
2019-05-29T09:08:00.565Z,15.84
2019-05-29T09:10:31.546Z,16.61
2019-05-29T09:13:05.143Z,16.12
2019-05-29T09:15:35.544Z,17.20
2019-05-29T09:18:06.642Z,16.76
2019-05-29T09:21:01.165Z,16.79
2019-05-29T09:23:12.751Z,15.53
2019-05-29T09:25:44.783Z,15.62
2019-05-29T09:28:18.385Z,15.53
2019-05-29T09:30:49.251Z,15.40
2019-05-29T09:33:21.864Z,15.17
2019-05-29T09:35:53.688Z,15.16
2019-05-29T09:38:25.113Z,15.63
2019-05-29T09:40:56.148Z,16.55
2019-05-29T09:43:30.678Z,16.39
2019-05-29T09:46:02.176Z,16.26
2019-05-29T09:48:48.524Z,15.76
2019-05-29T09:51:20.795Z,15.49
2019-05-29T09:53:38.307Z,15.34
2019-05-29T09:56:09.347Z,15.53
2019-05-29T09:58:40.402Z,16.24
2019-05-29T10:01:22.728Z,16.26
2019-05-29T10:03:44.736Z,15.73
2019-05-29T10:06:15.747Z,16.45
2019-05-29T10:08:46.975Z,17.32
2019-05-29T10:11:18.421Z,16.09
2019-05-29T10:13:49.392Z,15.65
2019-05-29T10:16:20.343Z,15.29
2019-05-29T10:18:51.568Z,16.16
2019-05-29T10:21:38.665Z,17.39
2019-05-29T10:23:56.604Z,17.68
2019-05-29T10:26:28.002Z,17.63
2019-05-29T10:29:07.961Z,17.23
2019-05-29T10:31:31.788Z,17.01
2019-05-29T10:34:02.786Z,18.34
2019-05-29T10:36:34.129Z,18.25
2019-05-29T10:39:07.911Z,17.27
2019-05-29T10:41:38.882Z,16.50
2019-05-29T10:44:12.627Z,16.42
2019-05-29T10:46:45.938Z,17.54
2019-05-29T10:49:15.748Z,17.02
2019-05-29T10:52:01.584Z,17.66
2019-05-29T10:54:19.450Z,18.07
2019-05-29T10:56:50.859Z,17.96
2019-05-29T10:59:22.647Z,17.78
2019-05-29T11:01:54.298Z,18.63
2019-05-29T11:04:26.351Z,18.79
2019-05-29T11:06:57.377Z,18.30
2019-05-29T11:09:43.402Z,18.67
2019-05-29T11:12:01.166Z,17.73
2019-05-29T11:14:32.163Z,17.38
2019-05-29T11:17:03.713Z,18.02
2019-05-29T11:19:34.707Z,17.62
2019-05-29T11:22:25.347Z,18.02
2019-05-29T11:24:39.154Z,18.08
2019-05-29T11:27:10.109Z,17.35
2019-05-29T11:29:42.085Z,16.68
2019-05-29T11:32:13.140Z,17.26
2019-05-29T11:34:44.128Z,16.96
2019-05-29T11:37:16.583Z,16.55
2019-05-29T11:39:47.658Z,17.43
2019-05-29T11:42:27.527Z,17.44
2019-05-29T11:44:53.316Z,16.87
2019-05-29T11:47:25.046Z,16.95
2019-05-29T11:50:00.478Z,18.26
2019-05-29T11:52:41.747Z,17.60
2019-05-29T11:55:07.336Z,17.97
2019-05-29T11:57:39.743Z,18.33
2019-05-29T12:00:19.575Z,17.90
2019-05-29T12:02:44.856Z,17.66
2019-05-29T12:05:16.484Z,17.79
2019-05-29T12:07:47.726Z,18.79
2019-05-29T12:10:18.966Z,17.42
2019-05-29T12:12:51.256Z,17.81
2019-05-29T12:15:23.088Z,17.62
2019-05-29T12:17:59.880Z,18.76
2019-05-29T12:20:28.686Z,18.80
2019-05-29T12:23:24.352Z,19.02
2019-05-29T12:25:33.102Z,18.27
2019-05-29T12:28:04.349Z,19.36
2019-05-29T12:30:35.462Z,18.93
2019-05-29T12:33:06.558Z,19.05
2019-05-29T12:35:37.495Z,19.66
2019-05-29T12:38:08.687Z,18.95
2019-05-29T12:40:40.126Z,19.47
2019-05-29T12:43:25.885Z,19.35
2019-05-29T12:45:44.159Z,18.75
2019-05-29T12:48:16.020Z,18.71
2019-05-29T12:50:48.711Z,19.13
2019-05-29T12:53:30.413Z,18.71
2019-05-29T12:55:53.978Z,18.61
2019-05-29T12:58:25.328Z,17.83
2019-05-29T13:00:56.545Z,18.01
2019-05-29T13:03:27.531Z,18.92
2019-05-29T13:05:58.758Z,18.18
2019-05-29T13:08:29.945Z,17.58
2019-05-29T13:11:01.019Z,17.55
2019-05-29T13:13:32.073Z,17.61
2019-05-29T13:16:03.169Z,17.45
2019-05-29T13:18:34.124Z,17.29
2019-05-29T13:21:05.585Z,17.36
2019-05-29T13:23:45.214Z,17.34
2019-05-29T13:26:10.124Z,17.08
2019-05-29T13:28:41.328Z,17.41
2019-05-29T13:31:12.851Z,17.71
2019-05-29T13:33:44.190Z,17.38
2019-05-29T13:36:15.173Z,17.53
2019-05-29T13:38:46.362Z,17.49
2019-05-29T13:41:17.808Z,17.32
2019-05-29T13:43:49.201Z,17.68
2019-05-29T13:46:20.152Z,17.23
2019-05-29T13:48:51.547Z,17.82
2019-05-29T13:51:22.747Z,17.74
2019-05-29T13:54:03.654Z,18.04
2019-05-29T13:56:26.424Z,18.09
2019-05-29T13:58:57.885Z,17.88
2019-05-29T14:01:29.198Z,17.81
2019-05-29T14:04:02.649Z,17.60
2019-05-29T14:06:33.895Z,17.97
2019-05-29T14:09:07.642Z,17.76
2019-05-29T14:11:39.167Z,18.27
2019-05-29T14:14:13.319Z,18.15
2019-05-29T14:16:43.445Z,18.21
2019-05-29T14:19:14.761Z,18.30
2019-05-29T14:21:46.471Z,17.71
2019-05-29T14:24:28.316Z,18.21
2019-05-29T14:26:50.432Z,17.70
2019-05-29T14:29:21.559Z,17.77
2019-05-29T14:31:53.332Z,17.47
2019-05-29T14:34:24.731Z,18.40
2019-05-29T14:36:55.737Z,19.28
2019-05-29T14:39:26.737Z,19.29
2019-05-29T14:41:58.598Z,19.15
2019-05-29T14:44:29.848Z,19.22
2019-05-29T14:47:01.852Z,19.55
2019-05-29T14:49:32.814Z,19.38
2019-05-29T14:52:04.578Z,19.13
2019-05-29T14:54:41.744Z,19.06
2019-05-29T14:57:21.327Z,18.90
2019-05-29T14:59:41.295Z,18.63
2019-05-29T15:02:21.585Z,19.00
2019-05-29T15:04:45.638Z,18.64
2019-05-29T15:07:16.913Z,19.00
2019-05-29T15:09:47.991Z,19.43
2019-05-29T15:12:20.030Z,19.09
2019-05-29T15:14:51.011Z,20.10
2019-05-29T15:17:22.675Z,19.69
2019-05-29T15:19:53.677Z,18.98
2019-05-29T15:22:25.511Z,19.78
2019-05-29T15:25:08.112Z,19.38
2019-05-29T15:27:29.696Z,19.13
2019-05-29T15:30:00.717Z,18.75
2019-05-29T15:32:32.060Z,18.13
2019-05-29T15:35:03.174Z,18.35
2019-05-29T15:37:34.418Z,17.87
2019-05-29T15:40:06.974Z,17.67
2019-05-29T15:42:38.081Z,18.29
2019-05-29T15:45:10.094Z,18.02
2019-05-29T15:47:41.174Z,17.72
2019-05-29T15:50:17.946Z,17.32
2019-05-29T15:52:49.776Z,17.53
2019-05-29T15:55:32.220Z,17.95
2019-05-29T15:57:53.947Z,18.36
2019-05-29T16:00:25.025Z,18.17
2019-05-29T16:02:56.584Z,18.43
2019-05-29T16:05:27.558Z,18.62
2019-05-29T16:07:59.547Z,17.98
2019-05-29T16:10:30.600Z,18.26
2019-05-29T16:13:02.186Z,17.53
2019-05-29T16:15:33.902Z,17.90
2019-05-29T16:18:18.647Z,17.99
2019-05-29T16:20:37.796Z,17.81
2019-05-29T16:23:08.920Z,17.96
2019-05-29T16:25:40.907Z,17.74
2019-05-29T16:28:13.128Z,17.98
2019-05-29T16:30:46.528Z,17.92
2019-05-29T16:33:19.391Z,17.71
2019-05-29T16:35:50.864Z,17.82
2019-05-29T16:38:22.080Z,17.56
2019-05-29T16:40:53.807Z,17.62
2019-05-29T16:43:25.494Z,17.71
2019-05-29T16:45:57.179Z,17.45
2019-05-29T16:48:28.408Z,17.54
2019-05-29T16:50:59.827Z,17.50
2019-05-29T16:53:30.839Z,17.76
2019-05-29T16:56:01.897Z,17.34
2019-05-29T16:58:32.923Z,17.62
2019-05-29T17:01:04.353Z,17.63
2019-05-29T17:03:35.429Z,17.54
2019-05-29T17:06:06.577Z,17.60
2019-05-29T17:08:37.767Z,17.88
2019-05-29T17:11:09.347Z,17.83
2019-05-29T17:13:40.455Z,17.97
2019-05-29T17:16:11.838Z,18.14
2019-05-29T17:18:43.461Z,18.04
2019-05-29T17:21:14.825Z,18.39
2019-05-29T17:23:46.184Z,18.14
2019-05-29T17:26:17.306Z,18.32
2019-05-29T17:28:48.340Z,18.18
2019-05-29T17:31:20.904Z,18.27
2019-05-29T17:33:52.394Z,18.24
2019-05-29T17:36:28.198Z,18.68
2019-05-29T17:38:56.537Z,18.52
2019-05-29T17:41:27.741Z,18.52
2019-05-29T17:46:33.916Z,18.17
2019-05-29T17:49:05.778Z,18.47
2019-05-29T17:51:36.939Z,18.52
2019-05-29T17:54:08.159Z,18.20
2019-05-29T17:56:39.770Z,18.37
2019-05-29T17:59:10.962Z,18.34
2019-05-29T18:01:42.548Z,18.64
2019-05-29T18:04:16.090Z,18.67
2019-05-29T18:06:47.173Z,18.93
2019-05-29T18:09:19.480Z,19.73
2019-05-29T18:11:51.965Z,19.96
2019-05-29T18:14:23.604Z,19.95
2019-05-29T18:16:54.940Z,19.27
2019-05-29T18:19:26.189Z,18.11
2019-05-29T18:21:57.770Z,17.83
2019-05-29T18:24:29.991Z,17.81
2019-05-29T18:27:01.895Z,17.42
2019-05-29T18:29:33.733Z,17.39
2019-05-29T18:32:04.920Z,17.31
2019-05-29T18:34:36.942Z,17.11
2019-05-29T18:37:09.560Z,17.12
2019-05-29T18:39:42.449Z,17.15
2019-05-29T18:42:14.740Z,17.23
2019-05-29T18:44:46.508Z,16.96
2019-05-29T18:47:18.686Z,16.97
2019-05-29T18:49:49.694Z,16.82
2019-05-29T18:52:21.861Z,16.92
2019-05-29T18:54:53.968Z,16.84
2019-05-29T18:57:25.602Z,16.93
2019-05-29T18:59:57.435Z,17.09
2019-05-29T19:02:30.183Z,17.21
2019-05-29T19:05:02.884Z,16.96
2019-05-29T19:07:35.354Z,16.94
2019-05-29T19:10:07.327Z,16.83
2019-05-29T19:12:38.997Z,16.67
2019-05-29T19:15:10.452Z,16.71
2019-05-29T19:17:41.569Z,16.70
2019-05-29T19:20:14.270Z,16.80
2019-05-29T19:22:47.773Z,16.84
2019-05-29T19:25:19.166Z,16.56
2019-05-29T19:27:52.165Z,16.48
2019-05-29T19:30:24.876Z,16.64
2019-05-29T19:32:57.064Z,16.49
2019-05-29T19:35:29.599Z,16.36
2019-05-29T19:38:01.185Z,16.48
2019-05-29T19:40:34.530Z,16.12
2019-05-29T19:43:07.994Z,16.02
2019-05-29T19:45:43.031Z,16.06
2019-05-29T19:48:15.833Z,15.88
2019-05-29T19:50:47.753Z,15.96
2019-05-29T19:53:19.356Z,15.99
2019-05-29T19:55:51.101Z,16.10
2019-05-29T19:58:25.648Z,15.76
2019-05-29T20:00:57.214Z,15.65
2019-05-29T20:03:29.026Z,15.91
2019-05-29T20:06:01.291Z,15.80
2019-05-29T20:08:36.261Z,15.71
2019-05-29T20:11:07.617Z,15.59
2019-05-29T20:13:39.435Z,15.55
2019-05-29T20:16:10.851Z,15.56
2019-05-29T20:18:42.264Z,15.50
2019-05-29T20:21:13.749Z,15.77
2019-05-29T20:23:45.818Z,15.44
2019-05-29T20:26:17.465Z,15.30
2019-05-29T20:28:49.558Z,15.23
2019-05-29T20:31:21.520Z,14.98
2019-05-29T20:33:53.482Z,15.07
2019-05-29T20:36:27.295Z,15.16
2019-05-29T20:38:59.504Z,14.94
2019-05-29T20:41:34.139Z,15.05
2019-05-29T20:44:06.098Z,15.28
2019-05-29T20:46:38.704Z,14.99
2019-05-29T20:49:10.145Z,14.86
2019-05-29T20:51:42.304Z,14.82
2019-05-29T20:54:16.719Z,14.68
2019-05-29T20:56:48.854Z,14.37
2019-05-29T20:59:20.339Z,14.34
2019-05-29T21:01:51.737Z,14.25
2019-05-29T21:04:23.734Z,14.37
2019-05-29T21:06:56.673Z,14.23
2019-05-29T21:09:30.199Z,14.26
2019-05-29T21:12:02.455Z,14.15
2019-05-29T21:14:35.446Z,13.99
2019-05-29T21:17:06.963Z,13.78
2019-05-29T21:19:40.654Z,13.86
2019-05-29T21:22:14.635Z,14.15
2019-05-29T21:24:59.675Z,14.15
2019-05-29T21:27:27.015Z,14.04
2019-05-29T21:30:05.386Z,13.96
2019-05-29T21:32:37.804Z,13.92
2019-05-29T21:35:11.430Z,13.56
2019-05-29T21:37:46.525Z,13.48
2019-05-29T21:40:18.901Z,13.42
2019-05-29T21:42:50.551Z,13.31
2019-05-29T21:45:23.064Z,13.30
2019-05-29T21:47:56.383Z,13.13
2019-05-29T21:50:28.431Z,13.12
2019-05-29T21:52:59.890Z,13.09
2019-05-29T21:55:30.974Z,12.85
2019-05-29T21:58:02.397Z,13.06
2019-05-29T22:00:38.015Z,12.80
2019-05-29T22:03:11.349Z,12.71
2019-05-29T22:05:44.746Z,12.56
2019-05-29T22:08:17.296Z,12.77
2019-05-29T22:10:49.190Z,12.77
2019-05-29T22:13:21.025Z,12.90
2019-05-29T22:15:54.734Z,12.50
2019-05-29T22:18:31.011Z,12.54
2019-05-29T22:21:06.320Z,12.39
2019-05-29T22:23:39.419Z,12.32
2019-05-29T22:26:11.748Z,12.21
2019-05-29T22:28:44.888Z,12.17
2019-05-29T22:31:18.601Z,12.14
2019-05-29T22:33:51.434Z,12.09
2019-05-29T22:36:23.698Z,12.09
2019-05-29T22:38:55.485Z,12.15
2019-05-29T22:41:27.134Z,11.93
2019-05-29T22:43:59.709Z,11.96
2019-05-29T22:46:31.011Z,11.95
2019-05-29T22:49:04.075Z,11.84
2019-05-29T22:51:36.036Z,11.87
2019-05-29T22:54:07.582Z,11.67
2019-05-29T22:56:40.521Z,11.84
2019-05-29T22:59:30.923Z,11.99
2019-05-29T23:01:52.089Z,11.91
2019-05-29T23:04:24.755Z,11.60
2019-05-29T23:06:58.357Z,11.64
2019-05-29T23:09:30.317Z,11.77
2019-05-29T23:12:03.428Z,11.87
2019-05-29T23:14:34.614Z,11.77
2019-05-29T23:17:05.864Z,11.66
2019-05-29T23:19:37.547Z,11.36
2019-05-29T23:22:10.815Z,11.54
2019-05-29T23:24:44.761Z,11.58
2019-05-29T23:27:17.187Z,11.43
2019-05-29T23:29:52.582Z,11.40
2019-05-29T23:32:25.559Z,11.17
2019-05-29T23:34:59.086Z,11.56
2019-05-29T23:37:34.487Z,11.20
2019-05-29T23:40:05.954Z,11.23
2019-05-29T23:42:39.770Z,11.45
2019-05-29T23:45:59.399Z,11.55
2019-05-29T23:48:11.056Z,11.53
2019-05-29T23:50:42.707Z,11.45
2019-05-29T23:53:14.824Z,11.35
2019-05-29T23:55:48.083Z,11.10
2019-05-29T23:58:21.125Z,11.01
